KRNC/RNC METAR and TAF weather

Enter ICAO airport designator
Station Type Date Time Source
KRNC METAR 2021/07/26 12:35 UTC NOAA

KRNC 261235Z AUTO 00000KT 7SM BKN019 OVC120 23/22 A3003 RMK A01


Station Type Date Time Source
KRNC Decoded METAR 2021/07/26 12:35 UTC NOAA

Station name not available
Jul 26, 2021 - 08:35 AM EDT / 2021.07.26 1235 UTC
Wind: Calm:0
Visibility: 7 mile(s):0
Sky conditions: overcast
Temperature: 73 F (23 C)
Dew Point: 71 F (22 C)
Relative Humidity: 94%
Pressure (altimeter): 30.03 in. Hg (1016 hPa)
ob: KRNC 261235Z AUTO 00000KT 7SM BKN019 OVC120 23/22 A3003 RMK A01
cycle: 12

Station Type Date Time Source
KRNC TAF 2009/08/31 19:45 UTC NOAA

METAR KRNC 311945Z AUTO 35008KT 10SM CLR 25/12 A3011
RMK AO1 T02500116 $

Example: see airport list